Time;durP1;ratioP1;P1;durP2;ratioP2;P2;SDS_P1;SDS_P2;PMS_P1;PMS_P2;Temp;Humidity;BMP_temperature;BMP_pressure;BME280_temperature;BME280_humidity;BME280_pressure;Samples;Min_cycle;Max_cycle;Signal;HPM_P1;HPM_P2
2022/11/10 00:02:16;;;;;;;;;;;;;;;12.63;100.00;100081.75;4509938;31;36118;-76
2022/11/10 00:05:21;;;;;;;;;;;;;;;11.60;100.00;100092.31;4511127;31;34844;-76
2022/11/10 00:08:25;;;;;;;;;;;;;;;12.52;100.00;100093.03;4512834;31;33690;-76
2022/11/10 00:11:30;;;;;;;;;;;;;;;12.32;100.00;100101.72;4512792;31;35812;-76
2022/11/10 00:18:00;;;;;;;;;;;;;;;11.42;100.00;100105.06;4510309;31;35282;-76
2022/11/10 00:21:05;;;;;;;;;;;;;;;11.03;100.00;100105.53;4509943;31;36789;-76
2022/11/10 00:24:09;;;;;;;;;;;;;;;11.42;100.00;100110.53;4502150;31;35895;-76
2022/11/10 00:27:13;;;;;;;;;;;;;;;11.51;100.00;100107.09;4511934;31;36241;-76
2022/11/10 00:30:18;;;;;;;;;;;;;;;11.24;100.00;100112.25;4512126;31;33509;-76
2022/11/10 00:33:22;;;;;;;;;;;;;;;11.95;100.00;100103.69;4510389;31;33995;-76
2022/11/10 00:36:27;;;;;;;;;;;;;;;11.00;100.00;100108.88;4510848;31;34837;-76
2022/11/10 00:39:31;;;;;;;;;;;;;;;11.35;100.00;100109.31;4510772;31;35263;-76
2022/11/10 00:42:36;;;;;;;;;;;;;;;11.62;100.00;100112.06;4511303;31;34796;-76
2022/11/10 00:45:41;;;;;;;;;;;;;;;11.03;100.00;100108.25;4501859;31;34110;-76
2022/11/10 00:48:46;;;;;;;;;;;;;;;11.60;100.00;100108.78;4501048;31;34859;-76
2022/11/10 00:51:50;;;;;;;;;;;;;;;12.09;100.00;100106.41;4499972;31;33955;-76
2022/11/10 00:54:54;;;;;;;;;;;;;;;12.32;100.00;100107.22;4510081;31;34979;-76
2022/11/10 00:57:59;;;;;;;;;;;;;;;12.35;100.00;100106.59;4511196;31;34971;-75
2022/11/10 01:01:03;;;;;;;;;;;;;;;12.66;100.00;100097.63;4499511;31;35696;-76
2022/11/10 01:04:08;;;;;;;;;;;;;;;12.82;100.00;100098.84;4490760;31;34709;-76
2022/11/10 01:07:12;;;;;;;;;;;;;;;12.91;100.00;100094.22;4500871;31;34535;-76
2022/11/10 01:10:17;;;;;;;;;;;;;;;12.97;100.00;100098.44;4510127;31;33517;-76
2022/11/10 01:13:21;;;;;;;;;;;;;;;12.97;100.00;100098.44;4508951;31;35042;-75
2022/11/10 01:16:27;;;;;;;;;;;;;;;12.99;100.00;100095.41;4512712;31;36174;-75
2022/11/10 01:19:32;;;;;;;;;;;;;;;12.92;100.00;100106.00;4512515;31;34386;-76
2022/11/10 01:22:36;;;;;;;;;;;;;;;12.90;100.00;100103.59;4509934;31;34929;-76
2022/11/10 01:25:41;;;;;;;;;;;;;;;12.87;100.00;100098.72;4512110;31;35804;-76
2022/11/10 01:28:46;;;;;;;;;;;;;;;12.95;100.00;100100.72;4493764;31;35343;-76
2022/11/10 01:31:50;;;;;;;;;;;;;;;12.76;100.00;100095.44;4512416;31;34988;-76
2022/11/10 01:34:56;;;;;;;;;;;;;;;12.72;100.00;100099.09;4501283;31;34809;-76
2022/11/10 01:38:00;;;;;;;;;;;;;;;12.86;100.00;100099.03;4512116;31;34909;-76
2022/11/10 01:41:05;;;;;;;;;;;;;;;12.20;100.00;100096.00;4512037;31;36280;-76
2022/11/10 01:44:10;;;;;;;;;;;;;;;10.23;100.00;100112.84;4502995;31;34816;-76
2022/11/10 01:47:15;;;;;;;;;;;;;;;10.42;100.00;100101.94;4513431;31;34045;-76
2022/11/10 01:50:19;;;;;;;;;;;;;;;11.17;100.00;100103.59;4512325;31;34951;-76
2022/11/10 01:53:24;;;;;;;;;;;;;;;10.77;100.00;100095.03;4511920;31;35226;-75
2022/11/10 01:56:29;;;;;;;;;;;;;;;10.91;100.00;100105.22;4501019;31;34815;-76
2022/11/10 01:59:35;;;;;;;;;;;;;;;11.62;100.00;100105.75;4502466;31;33796;-76
2022/11/10 02:02:45;;;;;;;;;;;;;;;11.20;100.00;100108.50;4502969;31;34864;-76
2022/11/10 02:05:50;;;;;;;;;;;;;;;10.82;100.00;100105.09;4503179;31;35128;-75
2022/11/10 02:08:55;;;;;;;;;;;;;;;11.46;100.00;100118.97;4503558;31;35508;-75
2022/11/10 02:11:59;;;;;;;;;;;;;;;11.52;100.00;100120.47;4502615;31;34105;-76
2022/11/10 02:15:08;;;;;;;;;;;;;;;10.74;100.00;100125.78;4510968;31;36585;-76
2022/11/10 02:18:12;;;;;;;;;;;;;;;10.61;100.00;100112.84;4502949;31;34705;-76
2022/11/10 02:21:17;;;;;;;;;;;;;;;10.71;100.00;100118.16;4510909;31;35819;-76
2022/11/10 02:24:22;;;;;;;;;;;;;;;10.09;100.00;100128.41;4503030;31;33579;-76
2022/11/10 02:27:27;;;;;;;;;;;;;;;10.11;100.00;100135.22;4511131;31;35679;-76
2022/11/10 02:30:31;;;;;;;;;;;;;;;10.27;100.00;100135.81;4499845;31;36161;-75
2022/11/10 02:33:35;;;;;;;;;;;;;;;11.09;100.00;100129.00;4501764;31;35609;-76
2022/11/10 02:36:40;;;;;;;;;;;;;;;10.40;100.00;100136.19;4509673;31;34264;-75
2022/11/10 02:39:44;;;;;;;;;;;;;;;11.24;100.00;100139.69;4513080;31;34964;-75
2022/11/10 02:42:49;;;;;;;;;;;;;;;11.91;100.00;100138.38;4502335;31;36047;-76
2022/11/10 02:45:53;;;;;;;;;;;;;;;10.77;100.00;100143.53;4511511;31;35309;-76
2022/11/10 02:48:57;;;;;;;;;;;;;;;11.23;100.00;100140.00;4502842;31;33666;-76
2022/11/10 02:52:02;;;;;;;;;;;;;;;11.37;100.00;100140.00;4501091;31;34469;-76
2022/11/10 02:55:06;;;;;;;;;;;;;;;11.36;100.00;100141.13;4512582;31;35788;-76
2022/11/10 02:58:11;;;;;;;;;;;;;;;11.15;100.00;100144.22;4511667;31;34782;-76
2022/11/10 03:01:16;;;;;;;;;;;;;;;10.49;100.00;100156.31;4512980;31;34924;-76
2022/11/10 03:04:21;;;;;;;;;;;;;;;11.06;100.00;100159.75;4511750;31;34551;-76
2022/11/10 03:07:25;;;;;;;;;;;;;;;11.87;100.00;100165.66;4511785;31;35139;-75
2022/11/10 03:10:29;;;;;;;;;;;;;;;11.59;100.00;100166.75;4493271;31;34926;-76
2022/11/10 03:13:34;;;;;;;;;;;;;;;11.96;100.00;100176.72;4503092;31;34125;-76
2022/11/10 03:16:59;;;;;;;;;;;;;;;11.55;100.00;100173.94;4511284;31;34994;-76
2022/11/10 03:20:04;;;;;;;;;;;;;;;10.85;100.00;100172.22;4510087;31;36192;-75
2022/11/10 03:23:08;;;;;;;;;;;;;;;10.58;100.00;100187.41;4510811;31;34346;-76
2022/11/10 03:26:13;;;;;;;;;;;;;;;9.50;100.00;100181.69;4501786;31;34100;-76
2022/11/10 03:29:17;;;;;;;;;;;;;;;9.35;100.00;100180.75;4512961;31;34563;-76
2022/11/10 03:32:22;;;;;;;;;;;;;;;9.48;100.00;100183.88;4510388;31;35108;-76
2022/11/10 03:35:26;;;;;;;;;;;;;;;10.47;100.00;100183.19;4512402;31;35622;-76
2022/11/10 03:38:31;;;;;;;;;;;;;;;10.21;100.00;100175.31;4510757;31;34072;-76
2022/11/10 03:41:35;;;;;;;;;;;;;;;9.27;100.00;100189.56;4511010;31;34630;-76
2022/11/10 03:44:39;;;;;;;;;;;;;;;9.26;100.00;100182.50;4512542;31;34918;-76
2022/11/10 03:47:45;;;;;;;;;;;;;;;9.44;100.00;100189.94;4501261;31;35692;-75
2022/11/10 03:50:49;;;;;;;;;;;;;;;9.26;100.00;100195.34;4501655;31;35017;-76
2022/11/10 03:53:54;;;;;;;;;;;;;;;9.14;100.00;100201.22;4509878;31;35589;-76
2022/11/10 03:56:58;;;;;;;;;;;;;;;9.35;100.00;100197.16;4508592;31;35255;-76
2022/11/10 04:00:03;;;;;;;;;;;;;;;9.52;100.00;100206.84;4498447;31;35350;-76
2022/11/10 04:03:07;;;;;;;;;;;;;;;9.46;100.00;100206.87;4510933;31;34752;-76
2022/11/10 04:09:35;;;;;;;;;;;;;;;9.33;100.00;100207.56;4510140;31;35228;-76
2022/11/10 04:16:03;;;;;;;;;;;;;;;9.26;100.00;100215.31;4511950;31;33612;-76
2022/11/10 04:19:07;;;;;;;;;;;;;;;9.26;100.00;100217.22;4502831;31;35714;-76
2022/11/10 04:23:25;;;;;;;;;;;;;;;9.31;100.00;100220.72;4510206;31;34772;-76
2022/11/10 04:26:27;;;;;;;;;;;;;;;9.45;100.00;100221.69;4507074;31;35000;-76
2022/11/10 04:29:01;;;;;;;;;;;;;;;9.57;100.00;100220.47;4503613;31;34141;-75
2022/11/10 04:32:06;;;;;;;;;;;;;;;9.29;100.00;100225.66;4511750;31;33744;-76
2022/11/10 04:35:10;;;;;;;;;;;;;;;9.61;100.00;100225.06;4510590;31;36096;-76
2022/11/10 04:38:15;;;;;;;;;;;;;;;9.45;100.00;100218.94;4511773;31;34902;-75
2022/11/10 04:41:19;;;;;;;;;;;;;;;9.52;100.00;100226.00;4508405;31;34172;-75
2022/11/10 04:44:24;;;;;;;;;;;;;;;9.92;100.00;100230.19;4511559;31;34614;-75
2022/11/10 04:47:28;;;;;;;;;;;;;;;9.62;100.00;100225.88;4510002;31;35177;-75
2022/11/10 04:50:33;;;;;;;;;;;;;;;9.99;100.00;100238.03;4511947;31;34821;-75
2022/11/10 04:53:37;;;;;;;;;;;;;;;9.93;100.00;100228.25;4503978;31;35396;-75
2022/11/10 04:56:42;;;;;;;;;;;;;;;9.24;100.00;100240.19;4512922;31;34575;-75
2022/11/10 04:59:47;;;;;;;;;;;;;;;9.02;100.00;100250.75;4510195;31;35943;-75
2022/11/10 05:02:51;;;;;;;;;;;;;;;9.07;100.00;100247.19;4511495;31;34892;-75
2022/11/10 05:05:56;;;;;;;;;;;;;;;9.11;100.00;100261.94;4511994;31;34024;-76
2022/11/10 05:09:00;;;;;;;;;;;;;;;9.15;100.00;100262.97;4512113;31;35877;-75
2022/11/10 05:12:05;;;;;;;;;;;;;;;9.35;100.00;100262.78;4510406;31;35542;-76
2022/11/10 05:15:10;;;;;;;;;;;;;;;9.69;100.00;100262.72;4512470;31;35815;-75
2022/11/10 05:18:14;;;;;;;;;;;;;;;9.91;100.00;100269.62;4513976;31;34159;-75
2022/11/10 05:21:19;;;;;;;;;;;;;;;9.50;100.00;100269.22;4514072;31;34927;-75
2022/11/10 05:24:23;;;;;;;;;;;;;;;9.60;100.00;100274.59;4512863;31;36168;-75
2022/11/10 05:27:28;;;;;;;;;;;;;;;9.82;100.00;100272.19;4513064;31;35221;-75
2022/11/10 05:30:34;;;;;;;;;;;;;;;9.12;100.00;100282.69;4503232;31;34562;-75
2022/11/10 05:33:39;;;;;;;;;;;;;;;9.65;100.00;100278.09;4512162;31;34927;-76
2022/11/10 05:36:43;;;;;;;;;;;;;;;9.09;100.00;100286.00;4503144;31;36154;-76
2022/11/10 05:39:47;;;;;;;;;;;;;;;9.15;100.00;100293.84;4513939;31;34818;-76
2022/11/10 05:42:52;;;;;;;;;;;;;;;9.36;100.00;100294.53;4502673;31;33775;-76
2022/11/10 05:45:59;;;;;;;;;;;;;;;9.33;100.00;100297.81;4503472;31;35843;-76
2022/11/10 05:49:04;;;;;;;;;;;;;;;9.25;100.00;100295.72;4502079;31;35224;-76
2022/11/10 05:52:08;;;;;;;;;;;;;;;9.30;100.00;100308.50;4508192;31;35642;-75
2022/11/10 05:55:13;;;;;;;;;;;;;;;9.52;100.00;100317.06;4502240;31;32865;-76
2022/11/10 05:58:17;;;;;;;;;;;;;;;9.46;100.00;100313.56;4512215;31;34564;-76
2022/11/10 06:01:21;;;;;;;;;;;;;;;9.39;100.00;100324.03;4511436;31;35276;-76
2022/11/10 06:04:26;;;;;;;;;;;;;;;9.37;100.00;100331.69;4512493;31;34964;-76
2022/11/10 06:07:31;;;;;;;;;;;;;;;9.61;100.00;100328.22;4497547;31;34093;-76
2022/11/10 06:10:36;;;;;;;;;;;;;;;9.38;100.00;100341.53;4513495;31;37169;-76
2022/11/10 06:13:41;;;;;;;;;;;;;;;9.89;100.00;100343.81;4487008;31;36056;-78
2022/11/10 06:16:46;;;;;;;;;;;;;;;10.10;100.00;100347.16;4498290;31;33994;-80
2022/11/10 06:19:51;;;;;;;;;;;;;;;10.32;100.00;100349.41;4501177;31;33750;-80
2022/11/10 06:22:57;;;;;;;;;;;;;;;10.37;100.00;100358.69;4509993;31;34967;-80
2022/11/10 06:26:02;;;;;;;;;;;;;;;10.33;100.00;100363.91;4500509;31;36059;-81
2022/11/10 06:29:06;;;;;;;;;;;;;;;10.26;100.00;100375.19;4488474;31;34834;-81
2022/11/10 06:32:10;;;;;;;;;;;;;;;9.99;100.00;100374.91;4502214;31;34097;-80
2022/11/10 06:35:15;;;;;;;;;;;;;;;10.80;100.00;100382.25;4492271;31;35806;-81
2022/11/10 06:38:20;;;;;;;;;;;;;;;10.58;100.00;100376.50;4509349;31;35220;-80
2022/11/10 06:41:24;;;;;;;;;;;;;;;10.24;100.00;100382.87;4510988;31;33610;-80
2022/11/10 06:44:29;;;;;;;;;;;;;;;9.93;100.00;100384.28;4508711;31;34901;-80
2022/11/10 06:47:33;;;;;;;;;;;;;;;10.58;100.00;100395.66;4512370;31;35512;-81
2022/11/10 06:50:37;;;;;;;;;;;;;;;9.87;100.00;100405.41;4510409;31;34743;-81
2022/11/10 06:53:41;;;;;;;;;;;;;;;9.76;100.00;100404.72;4485940;31;35695;-81
2022/11/10 06:56:46;;;;;;;;;;;;;;;10.05;100.00;100412.94;4507449;31;33794;-82
2022/11/10 06:59:50;;;;;;;;;;;;;;;10.46;100.00;100422.69;4510600;31;35040;-79
2022/11/10 07:02:58;;;;;;;;;;;;;;;10.47;100.00;100429.78;4498166;31;35181;-79
2022/11/10 07:06:03;;;;;;;;;;;;;;;10.07;100.00;100426.31;4502474;31;34880;-76
2022/11/10 07:09:08;;;;;;;;;;;;;;;10.21;100.00;100429.19;4508115;31;33587;-76
2022/11/10 07:12:12;;;;;;;;;;;;;;;10.57;100.00;100444.19;4504753;31;34507;-80
2022/11/10 07:15:16;;;;;;;;;;;;;;;9.94;100.00;100443.44;4510915;31;36055;-80
2022/11/10 07:18:22;;;;;;;;;;;;;;;9.51;100.00;100435.00;4508428;31;35586;-82
2022/11/10 07:21:26;;;;;;;;;;;;;;;9.77;100.00;100439.19;4498974;31;34106;-75
2022/11/10 07:24:31;;;;;;;;;;;;;;;9.58;100.00;100441.78;4510439;31;34985;-76
2022/11/10 07:27:36;;;;;;;;;;;;;;;9.72;100.00;100444.69;4507160;31;35408;-76
2022/11/10 07:30:40;;;;;;;;;;;;;;;9.69;100.00;100443.34;4493781;31;35743;-76
2022/11/10 07:33:46;;;;;;;;;;;;;;;9.91;100.00;100453.03;4492978;31;33664;-76
2022/11/10 07:36:58;;;;;;;;;;;;;;;9.84;100.00;100458.00;4496150;31;35456;-76
2022/11/10 07:40:03;;;;;;;;;;;;;;;9.99;100.00;100452.41;4495278;31;36182;-76
2022/11/10 07:43:07;;;;;;;;;;;;;;;10.05;100.00;100459.47;4488763;31;35158;-76
2022/11/10 07:46:12;;;;;;;;;;;;;;;9.60;100.00;100468.88;4497048;31;34915;-74
2022/11/10 07:49:18;;;;;;;;;;;;;;;9.90;100.00;100471.37;4496667;31;35371;-80
2022/11/10 07:52:22;;;;;;;;;;;;;;;10.32;100.00;100486.34;4496724;31;35576;-80
2022/11/10 07:55:26;;;;;;;;;;;;;;;10.64;100.00;100478.66;4495302;31;33615;-73
2022/11/10 07:58:31;;;;;;;;;;;;;;;9.68;100.00;100473.75;4483412;31;33414;-72
2022/11/10 08:01:36;;;;;;;;;;;;;;;9.96;100.00;100485.00;4495382;31;34585;-73
2022/11/10 08:04:41;;;;;;;;;;;;;;;10.17;100.00;100481.00;4495192;31;35272;-72
2022/11/10 08:07:46;;;;;;;;;;;;;;;10.69;100.00;100482.16;4495145;31;34988;-72
2022/11/10 08:10:51;;;;;;;;;;;;;;;9.94;100.00;100489.97;4495664;31;34356;-72
2022/11/10 08:13:55;;;;;;;;;;;;;;;9.64;100.00;100494.53;4492572;31;34916;-73
2022/11/10 08:17:00;;;;;;;;;;;;;;;10.11;100.00;100501.31;4487235;31;35279;-72
2022/11/10 08:20:04;;;;;;;;;;;;;;;9.76;100.00;100505.97;4486003;31;34816;-73
2022/11/10 08:23:09;;;;;;;;;;;;;;;10.04;100.00;100509.03;4491618;31;34177;-72
2022/11/10 08:26:16;;;;;;;;;;;;;;;10.04;100.00;100514.50;4485127;31;34993;-75
2022/11/10 08:29:21;;;;;;;;;;;;;;;10.20;100.00;100505.06;4495791;31;33737;-75
2022/11/10 08:32:25;;;;;;;;;;;;;;;10.65;100.00;100494.00;4494327;31;35510;-80
2022/11/10 08:35:30;;;;;;;;;;;;;;;10.74;100.00;100501.28;4496309;31;32762;-82
2022/11/10 08:38:34;;;;;;;;;;;;;;;10.71;100.00;100507.34;4495077;31;35509;-82
2022/11/10 08:41:38;;;;;;;;;;;;;;;10.25;100.00;100521.47;4495452;31;35068;-81
2022/11/10 08:44:43;;;;;;;;;;;;;;;10.65;100.00;100524.16;4476760;31;34372;-81
2022/11/10 08:47:54;;;;;;;;;;;;;;;10.41;100.00;100543.25;4494928;31;34557;-81
2022/11/10 08:50:59;;;;;;;;;;;;;;;10.61;100.00;100556.78;4495737;31;34558;-80
2022/11/10 08:54:03;;;;;;;;;;;;;;;11.10;100.00;100550.25;4486097;31;34599;-80
2022/11/10 08:57:08;;;;;;;;;;;;;;;10.80;100.00;100565.09;4496470;31;35123;-80
2022/11/10 09:00:13;;;;;;;;;;;;;;;11.00;100.00;100572.28;4495556;31;33558;-80
2022/11/10 09:03:22;;;;;;;;;;;;;;;10.69;100.00;100572.59;4488976;31;34839;-81
2022/11/10 09:06:27;;;;;;;;;;;;;;;10.49;100.00;100570.03;4489577;31;34655;-80
2022/11/10 09:09:32;;;;;;;;;;;;;;;10.85;100.00;100565.03;4488701;31;34797;-81
2022/11/10 09:12:36;;;;;;;;;;;;;;;10.49;100.00;100570.03;4483648;31;33861;-81
2022/11/10 09:15:41;;;;;;;;;;;;;;;10.72;100.00;100577.50;4486681;31;35089;-80
2022/11/10 09:18:45;;;;;;;;;;;;;;;11.01;100.00;100587.62;4500118;31;35166;-79
2022/11/10 09:21:49;;;;;;;;;;;;;;;10.75;100.00;100587.88;4494073;31;34925;-80
2022/11/10 09:24:54;;;;;;;;;;;;;;;10.89;100.00;100584.47;4495172;31;34135;-80
2022/11/10 09:27:58;;;;;;;;;;;;;;;10.67;100.00;100588.53;4493202;31;34541;-81
2022/11/10 09:31:02;;;;;;;;;;;;;;;10.68;100.00;100594.81;4495637;31;35196;-81
2022/11/10 09:34:08;;;;;;;;;;;;;;;10.60;100.00;100587.22;4485366;31;35670;-81
2022/11/10 09:37:12;;;;;;;;;;;;;;;10.45;100.00;100597.22;4489119;31;34745;-80
2022/11/10 09:40:21;;;;;;;;;;;;;;;10.54;100.00;100614.66;4499766;31;35279;-81
2022/11/10 09:43:34;;;;;;;;;;;;;;;10.43;100.00;100596.66;4496869;31;35167;-81
2022/11/10 09:46:59;;;;;;;;;;;;;;;10.41;100.00;100606.28;4490060;31;35700;-81
2022/11/10 09:50:05;;;;;;;;;;;;;;;10.16;100.00;100608.09;4496676;31;34189;-82
2022/11/10 09:53:12;;;;;;;;;;;;;;;10.44;100.00;100616.66;4510558;31;35026;-80
2022/11/10 09:56:37;;;;;;;;;;;;;;;10.56;100.00;100614.41;4474430;31;33915;-82
2022/11/10 09:59:42;;;;;;;;;;;;;;;10.59;100.00;100616.56;4508643;31;34352;-81
2022/11/10 10:02:54;;;;;;;;;;;;;;;11.02;100.00;100622.19;4512232;31;34897;-82
2022/11/10 10:06:21;;;;;;;;;;;;;;;10.71;100.00;100614.25;4500825;31;34651;-81
2022/11/10 10:09:35;;;;;;;;;;;;;;;11.04;100.00;100625.44;4508176;31;35185;-82
2022/11/10 10:12:53;;;;;;;;;;;;;;;10.95;100.00;100638.97;4500504;31;35714;-82
2022/11/10 10:16:00;;;;;;;;;;;;;;;10.59;100.00;100630.25;4511084;31;32824;-81
2022/11/10 10:19:15;;;;;;;;;;;;;;;10.61;100.00;100628.03;4503531;31;35510;-81
2022/11/10 10:22:25;;;;;;;;;;;;;;;10.78;100.00;100628.41;4496814;31;35240;-81
2022/11/10 10:25:30;;;;;;;;;;;;;;;10.80;100.00;100642.66;4506502;31;34515;-82
2022/11/10 10:28:36;;;;;;;;;;;;;;;10.76;100.00;100629.84;4499445;31;34104;-84
2022/11/10 10:31:41;;;;;;;;;;;;;;;10.79;100.00;100641.03;4495694;31;35288;-82
2022/11/10 10:34:46;;;;;;;;;;;;;;;11.08;100.00;100628.44;4495086;31;35882;-82
2022/11/10 10:37:54;;;;;;;;;;;;;;;11.11;100.00;100628.66;4495791;31;35695;-84
2022/11/10 10:40:59;;;;;;;;;;;;;;;11.38;100.00;100647.28;4494886;31;33053;-84
2022/11/10 10:44:08;;;;;;;;;;;;;;;11.28;100.00;100641.13;4495761;31;35060;-85
2022/11/10 10:47:13;;;;;;;;;;;;;;;10.90;100.00;100641.78;4499751;31;34682;-86
2022/11/10 10:50:21;;;;;;;;;;;;;;;10.99;100.00;100647.44;4498604;31;34932;-82
2022/11/10 10:53:26;;;;;;;;;;;;;;;11.59;100.00;100647.88;4505950;31;34762;-85
2022/11/10 10:56:32;;;;;;;45.88;21.08;;;;;;;11.63;100.00;100650.84;4504499;31;34847;-84
2022/11/10 10:59:37;;;;;;;49.42;19.58;;;;;;;11.35;100.00;100644.31;4503012;31;34952;-87
2022/11/10 11:02:41;;;;;;;48.13;20.62;;;;;;;11.60;100.00;100644.03;4500285;31;34202;-84
2022/11/10 11:06:17;;;;;;;46.17;19.75;;;;;;;11.31;100.00;100651.50;4496854;31;33993;-87
2022/11/10 11:09:24;;;;;;;47.85;20.25;;;;;;;11.30;100.00;100655.34;4509291;31;35695;-86
2022/11/10 11:12:30;;;;;;;45.30;21.02;;;;;;;11.75;100.00;100653.19;4499536;31;36594;-85
2022/11/10 11:15:35;;;;;;;52.00;21.62;;;;;;;11.44;100.00;100661.78;4493405;31;35442;-83
2022/11/10 11:18:40;;;;;;;44.72;21.90;;;;;;;11.51;100.00;100667.75;4507752;31;34261;-86
2022/11/10 11:21:59;;;;;;;46.15;21.50;;;;;;;11.55;100.00;100676.19;4496695;31;34685;-86
2022/11/10 11:25:21;;;;;;;45.03;19.75;;;;;;;11.47;100.00;100672.19;4500397;31;35629;-83
2022/11/10 11:28:28;;;;;;;43.08;19.80;;;;;;;11.93;100.00;100674.41;4509216;31;34628;-86
2022/11/10 11:31:49;;;;;;;41.88;18.45;;;;;;;11.89;100.00;100663.16;4511811;31;34310;-86
2022/11/10 11:35:12;;;;;;;47.33;19.85;;;;;;;11.60;100.00;100671.47;4507999;31;34691;-87
2022/11/10 11:38:22;;;;;;;40.95;19.40;;;;;;;12.03;100.00;100668.75;4473838;31;869396;-85
2022/11/10 11:42:02;;;;;;;40.90;16.87;;;;;;;11.79;100.00;100678.94;4509454;31;34713;-84
2022/11/10 11:45:22;;;;;;;41.67;16.98;;;;;;;11.59;100.00;100678.09;4509620;31;33951;-87
2022/11/10 11:48:33;;;;;;;45.00;19.33;;;;;;;11.40;100.00;100686.25;4511221;31;35580;-87
2022/11/10 11:51:44;;;;;;;;;;;;;;;11.31;100.00;100687.19;4511364;31;34568;-86
2022/11/10 11:55:03;;;;;;;;;;;;;;;11.69;100.00;100683.44;4510646;31;34933;-87
2022/11/10 11:58:19;;;;;;;;;;;;;;;11.26;100.00;100683.34;4504131;31;35010;-87
2022/11/10 12:01:44;;;;;;;;;;;;;;;11.23;100.00;100683.94;4510720;31;35820;-88
2022/11/10 12:04:58;;;;;;;;;;;;;;;11.34;100.00;100684.66;4510483;31;35260;-86
2022/11/10 12:08:07;;;;;;;;;;;;;;;11.58;100.00;100687.41;4506785;31;34915;-86
2022/11/10 12:11:15;;;;;;;;;;;;;;;11.31;100.00;100673.47;4506507;31;34989;-87
2022/11/10 12:14:34;;;;;;;;;;;;;;;11.13;100.00;100684.06;4509417;31;35783;-87
2022/11/10 12:17:39;;;;;;;;;;;;;;;11.05;100.00;100687.44;4510003;31;35278;-86
2022/11/10 12:20:46;;;;;;;;;;;;;;;10.65;100.00;100694.87;4509083;31;34908;-87
2022/11/10 12:23:51;;;;;;;;;;;;;;;10.98;100.00;100703.38;4511117;31;34122;-89
2022/11/10 12:26:57;;;;;;;;;;;;;;;10.88;100.00;100708.97;4502994;31;34846;-87
2022/11/10 12:30:07;;;;;;;;;;;;;;;11.20;100.00;100694.69;4498271;31;35255;-90
2022/11/10 12:33:30;;;;;;;;;;;;;;;11.07;100.00;100707.16;4495694;31;34607;-89
2022/11/10 12:36:35;;;;;;;;;;;;;;;11.10;100.00;100716.72;4495088;31;34440;-90
2022/11/10 12:40:05;;;;;;;;;;;;;;;11.25;100.00;100725.63;4497877;31;37097;-88
2022/11/10 12:43:12;;;;;;;;;;;;;;;10.96;100.00;100722.88;4489351;31;34939;-89
2022/11/10 12:46:17;;;;;;;;;;;;;;;10.84;100.00;100721.59;4496646;31;34887;-90
2022/11/10 12:49:24;;;;;;;;;;;;;;;10.75;100.00;100722.19;4497879;31;34134;-87
2022/11/10 12:52:34;;;;;;;;;;;;;;;10.79;100.00;100727.94;4497794;31;34402;-92
2022/11/10 12:55:40;;;;;;;;;;;;;;;10.66;100.00;100732.16;4496146;31;34774;-89
2022/11/10 12:58:45;;;;;;;;;;;;;;;10.52;100.00;100734.69;4497515;31;34653;-90
2022/11/10 13:02:09;;;;;;;;;;;;;;;10.60;100.00;100730.53;4497176;31;33826;-91
2022/11/10 13:05:14;;;;;;;;;;;;;;;10.53;100.00;100727.28;4488047;31;35627;-87
2022/11/10 13:08:19;;;;;;;;;;;;;;;10.79;100.00;100728.78;4502041;31;35001;-87
2022/11/10 13:11:28;;;;;;;;;;;;;;;10.50;100.00;100736.06;4504622;31;34935;-87
2022/11/10 13:14:33;;;;;;;;;;;;;;;10.47;100.00;100742.97;4499996;31;34301;-90
2022/11/10 13:17:37;;;;;;;;;;;;;;;10.77;100.00;100730.97;4499523;31;35150;-92
2022/11/10 13:20:46;;;;;;;;;;;;;;;10.60;100.00;100738.75;4502552;31;35152;-92
2022/11/10 13:23:51;;;;;;;;;;;;;;;10.82;100.00;100749.31;4504264;31;34933;-89
2022/11/10 13:26:56;;;;;;;;;;;;;;;10.61;100.00;100740.41;4504378;31;34281;-89
2022/11/10 13:30:01;;;;;;;;;;;;;;;10.46;100.00;100751.47;4500100;31;33490;-89
2022/11/10 13:33:24;;;;;;;;;;;;;;;10.59;100.00;100748.09;4503831;31;35206;-91
2022/11/10 13:36:42;;;;;;;;;;;;;;;10.62;100.00;100754.94;4501622;31;33750;-91
2022/11/10 13:39:46;;;;;;;;;;;;;;;10.71;100.00;100765.00;4492357;31;34042;-91
2022/11/10 13:42:57;;;;;;;;;;;;;;;10.80;100.00;100774.25;4507119;31;35993;-93
2022/11/10 13:46:02;;;;;;;;;;;;;;;10.81;100.00;100772.31;4503284;31;35349;-92
2022/11/10 13:49:30;;;;;;;;;;;;;;;10.91;100.00;100765.97;4502900;31;35662;-90
2022/11/10 13:52:37;;;;;;;;;;;;;;;10.68;100.00;100771.06;4498331;31;34104;-91
2022/11/10 13:55:49;;;;;;;;;;;;;;;10.67;100.00;100791.38;4503601;31;35611;-93
2022/11/10 13:58:53;;;;;;;;;;;;;;;10.87;100.00;100778.59;4502526;31;35243;-91
2022/11/10 14:02:18;;;;;;;;;;;;;;;10.64;100.00;100780.94;4510009;31;34288;-91
2022/11/10 14:05:29;;;;;;;;;;;;;;;10.69;100.00;100780.09;4506253;31;32593;-92
2022/11/10 14:08:34;;;;;;;;;;;;;;;10.85;100.00;100786.31;4504681;31;34969;-91
2022/11/10 14:11:39;;;;;;;;;;;;;;;11.03;100.00;100778.19;4506544;31;35167;-90
2022/11/10 14:14:53;;;;;;;;;;;;;;;10.77;100.00;100791.28;4502817;31;35360;-92
2022/11/10 14:17:57;;;;;;;;;;;;;;;10.66;100.00;100792.44;4494096;31;34025;-90
2022/11/10 14:21:01;;;;;;;;;;;;;;;10.81;100.00;100797.00;4502289;31;34948;-89
2022/11/10 14:24:10;;;;;;;;;;;;;;;10.73;100.00;100806.66;4497107;31;35195;-93
2022/11/10 14:27:20;;;;;;;;;;;;;;;10.55;100.00;100793.59;4505920;31;34806;-89
2022/11/10 14:30:28;;;;;;;;;;;;;;;10.85;100.00;100809.06;4508855;31;34097;-93
2022/11/10 14:33:33;;;;;;;;;;;;;;;10.91;100.00;100809.84;4498926;31;35734;-91
2022/11/10 14:36:37;;;;;;;;;;;;;;;10.88;100.00;100813.97;4505936;31;35364;-91
2022/11/10 14:39:42;;;;;;;;;;;;;;;10.68;100.00;100819.59;4507037;31;34437;-92
2022/11/10 14:42:47;;;;;;;;;;;;;;;10.88;100.00;100821.38;4511523;31;32908;-89
2022/11/10 14:45:52;;;;;;;;;;;;;;;10.73;100.00;100828.59;4498679;31;35840;-91
2022/11/10 14:48:57;;;;;;;;;;;;;;;10.73;100.00;100828.59;4509255;31;36022;-93
2022/11/10 14:52:01;;;;;;;;;;;;;;;10.91;100.00;100834.53;4509083;31;34110;-89
2022/11/10 14:55:17;;;;;;;;;;;;;;;10.57;100.00;100838.00;4503231;31;34095;-90
2022/11/10 14:58:21;;;;;;;;;;;;;;;10.78;100.00;100845.00;4508472;31;34413;-91
2022/11/10 15:01:33;;;;;;;;;;;;;;;10.95;100.00;100835.59;4507034;31;34619;-89
2022/11/10 15:04:39;;;;;;;;;;;;;;;10.85;100.00;100846.63;4511428;31;34979;-90
2022/11/10 15:07:54;;;;;;;;;;;;;;;10.73;100.00;100850.53;4502409;31;34997;-88
2022/11/10 15:10:59;;;;;;;;;;;;;;;10.78;100.00;100845.00;4501967;31;34859;-90
2022/11/10 15:14:03;;;;;;;;;;;;;;;10.35;100.00;100858.34;4508042;31;34952;-91
2022/11/10 15:17:13;;;;;;;;;;;;;;;10.74;100.00;100857.63;4506154;31;34831;-91
2022/11/10 15:20:34;;;;;;;;;;;;;;;10.55;100.00;100867.59;4505893;31;34159;-89
2022/11/10 15:23:39;;;;;;;;;;;;;;;10.43;100.00;100864.37;4505975;31;35793;-90
2022/11/10 15:26:44;;;;;;;;;;;;;;;10.55;100.00;100868.41;4503591;31;35137;-90
2022/11/10 15:33:34;;;;;;;;;;;;;;;10.85;100.00;100866.63;4514766;31;33903;-91
2022/11/10 15:36:38;;;;;;;;;;;;;;;10.50;100.00;100873.94;4509973;31;35893;-91
2022/11/10 15:39:43;;;;;;;;;;;;;;;10.89;100.00;100878.66;4507123;31;36009;-92
2022/11/10 15:43:06;;;;;;;;;;;;;;;10.58;100.00;100886.22;4505159;31;34453;-91
2022/11/10 15:46:14;;;;;;;;;;;;;;;10.65;100.00;100889.50;4512309;31;34119;-87
2022/11/10 15:49:31;;;;;;;;;;;;;;;10.58;100.00;100898.00;4503155;31;34978;-86
2022/11/10 15:52:36;;;;;;;;;;;;;;;10.76;100.00;100902.06;4512150;31;36103;-88
2022/11/10 15:55:41;;;;;;;;;;;;;;;10.51;100.00;100904.91;4511473;31;34980;-88
2022/11/10 15:58:49;;;;;;;;;;;;;;;10.43;100.00;100898.06;4501054;31;34126;-88